Time;durP1;ratioP1;P1;durP2;ratioP2;P2;SDS_P1;SDS_P2;PMS_P1;PMS_P2;Temp;Humidity;BMP_temperature;BMP_pressure;BME280_temperature;BME280_humidity;BME280_pressure;Samples;Min_cycle;Max_cycle;Signal;HPM_P1;HPM_P2
2023/05/03 00:02:15;;;;;;;9.68;4.95;;;9.80;99.90;;;;;;5011471;28;20033;-74
2023/05/03 00:04:40;;;;;;;9.18;5.22;;;9.70;99.90;;;;;;5013156;28;20503;-76
2023/05/03 00:07:13;;;;;;;9.73;5.00;;;9.70;99.90;;;;;;4994912;28;20029;-76
2023/05/03 00:09:39;;;;;;;9.27;4.70;;;9.70;99.90;;;;;;5014169;28;20036;-77
2023/05/03 00:12:05;;;;;;;8.57;4.90;;;9.60;99.90;;;;;;5014799;28;20384;-77
2023/05/03 00:14:33;;;;;;;10.15;4.97;;;9.60;99.90;;;;;;5013354;28;20101;-77
2023/05/03 00:17:02;;;;;;;8.80;4.68;;;9.50;99.90;;;;;;5014719;28;20087;-77
2023/05/03 00:19:32;;;;;;;8.30;4.28;;;9.50;99.90;;;;;;5013877;28;20037;-77
2023/05/03 00:21:58;;;;;;;8.20;4.78;;;9.50;99.90;;;;;;5014723;28;20022;-77
2023/05/03 00:24:24;;;;;;;8.32;4.85;;;9.50;99.90;;;;;;5014871;28;20431;-77
2023/05/03 00:26:53;;;;;;;10.52;5.55;;;9.50;99.90;;;;;;5005074;28;20120;-77
2023/05/03 00:29:21;;;;;;;9.52;4.88;;;9.40;99.90;;;;;;4994220;28;20021;-77
2023/05/03 00:31:46;;;;;;;10.05;5.43;;;9.40;99.90;;;;;;4995004;28;20062;-77
2023/05/03 00:34:18;;;;;;;10.13;5.38;;;9.40;99.90;;;;;;4977271;28;20492;-77
2023/05/03 00:36:46;;;;;;;10.68;5.55;;;9.40;99.90;;;;;;4996745;28;20023;-77
2023/05/03 00:39:15;;;;;;;10.63;4.90;;;9.30;99.90;;;;;;5011706;28;20473;-77
2023/05/03 00:41:41;;;;;;;9.85;5.30;;;9.30;99.90;;;;;;5006153;28;20046;-77
2023/05/03 00:44:06;;;;;;;9.88;5.68;;;9.30;99.90;;;;;;4998948;28;20108;-77
2023/05/03 00:46:39;;;;;;;8.00;4.90;;;9.30;99.90;;;;;;5016138;28;20037;-76
2023/05/03 00:49:07;;;;;;;11.02;5.13;;;9.20;99.90;;;;;;5015734;28;20048;-76
2023/05/03 00:51:36;;;;;;;8.35;4.80;;;9.20;99.90;;;;;;5016468;28;20117;-76
2023/05/03 00:54:02;;;;;;;9.82;4.43;;;9.20;99.90;;;;;;5009410;28;20029;-77
2023/05/03 00:56:38;;;;;;;9.18;5.00;;;9.10;99.90;;;;;;5016102;28;20109;-77
2023/05/03 00:59:05;;;;;;;11.77;4.68;;;9.10;99.90;;;;;;4998314;28;20050;-77
2023/05/03 01:01:31;;;;;;;8.80;4.80;;;9.10;99.90;;;;;;5016115;28;20500;-77
2023/05/03 01:03:59;;;;;;;10.18;5.57;;;9.10;99.90;;;;;;5015874;28;20022;-76
2023/05/03 01:06:50;;;;;;;7.90;4.03;;;9.10;99.90;;;;;;5015971;28;20021;-77
2023/05/03 01:09:38;;;;;;;9.77;4.88;;;9.10;99.90;;;;;;4997540;28;20404;-76
2023/05/03 01:12:45;;;;;;;11.23;5.57;;;9.10;99.90;;;;;;5015157;28;20464;-77
2023/05/03 01:17:49;;;;;;;13.75;5.10;;;9.00;99.90;;;;;;4997388;28;20042;-80
2023/05/03 01:20:20;;;;;;;9.68;5.10;;;9.00;99.90;;;;;;4993235;28;20064;-75
2023/05/03 01:22:57;;;;;;;9.65;4.68;;;9.00;99.90;;;;;;4994271;28;20023;-79
2023/05/03 01:25:23;;;;;;;12.23;4.90;;;8.90;99.90;;;;;;4980529;28;20034;-80
2023/05/03 01:27:52;;;;;;;8.88;4.68;;;8.90;99.90;;;;;;4995576;28;20362;-79
2023/05/03 01:30:25;;;;;;;7.97;4.38;;;8.90;99.90;;;;;;4986631;28;20400;-77
2023/05/03 01:33:12;;;;;;;10.23;4.53;;;8.90;99.90;;;;;;4992242;28;20110;-79
2023/05/03 01:35:49;;;;;;;8.40;4.47;;;8.90;99.90;;;;;;4994724;28;20027;-76
2023/05/03 01:38:17;;;;;;;7.35;4.50;;;8.80;99.90;;;;;;4988221;28;20033;-78
2023/05/03 01:40:48;;;;;;;8.68;4.47;;;8.80;99.90;;;;;;4992316;28;20030;-78
2023/05/03 01:43:18;;;;;;;9.68;5.28;;;8.80;99.90;;;;;;4978124;28;20069;-76
2023/05/03 01:45:44;;;;;;;9.65;4.38;;;8.70;99.90;;;;;;4972338;28;20667;-76
2023/05/03 01:48:18;;;;;;;11.00;5.43;;;8.70;99.90;;;;;;4995987;28;20026;-77
2023/05/03 01:50:44;;;;;;;8.60;4.47;;;8.60;99.90;;;;;;4997378;28;20026;-80
2023/05/03 01:53:28;;;;;;;8.07;4.15;;;8.60;99.90;;;;;;4993587;28;20093;-77
2023/05/03 01:55:53;;;;;;;6.82;3.75;;;8.60;99.90;;;;;;4994225;28;20326;-77
2023/05/03 01:58:25;;;;;;;10.40;4.50;;;8.50;99.90;;;;;;4995311;28;20173;-79
2023/05/03 02:00:51;;;;;;;9.18;4.25;;;8.50;99.90;;;;;;4997062;28;20092;-80
2023/05/03 02:03:25;;;;;;;6.93;3.83;;;8.50;99.90;;;;;;4992208;28;20026;-79
2023/05/03 02:05:51;;;;;;;9.18;4.28;;;8.50;99.90;;;;;;4996664;28;20115;-79
2023/05/03 02:08:19;;;;;;;9.68;4.90;;;8.50;99.90;;;;;;4996592;28;20031;-80
2023/05/03 02:10:45;;;;;;;9.20;4.68;;;8.50;99.90;;;;;;4994719;28;20072;-79
2023/05/03 02:13:15;;;;;;;10.80;4.65;;;8.40;99.90;;;;;;4979389;28;20334;-80
2023/05/03 02:15:50;;;;;;;9.35;4.63;;;8.40;99.90;;;;;;4979349;28;20026;-78
2023/05/03 02:18:17;;;;;;;8.52;4.63;;;8.40;99.90;;;;;;4994246;28;20046;-79
2023/05/03 02:20:49;;;;;;;7.30;4.22;;;8.40;99.90;;;;;;4991147;28;20022;-79
2023/05/03 02:23:17;;;;;;;8.02;4.60;;;8.40;99.90;;;;;;4994119;28;20149;-78
2023/05/03 02:25:58;;;;;;;11.20;5.43;;;8.40;99.90;;;;;;4994424;28;20106;-79
2023/05/03 02:28:27;;;;;;;14.23;4.93;;;8.40;99.90;;;;;;4994743;28;20045;-78
2023/05/03 02:30:52;;;;;;;7.63;3.72;;;8.40;99.90;;;;;;4993820;28;20034;-78
2023/05/03 02:33:21;;;;;;;8.25;4.18;;;8.40;99.90;;;;;;4994655;28;20036;-79
2023/05/03 02:35:50;;;;;;;8.70;4.40;;;8.40;99.90;;;;;;4991187;28;20050;-78
2023/05/03 02:38:16;;;;;;;8.10;4.20;;;8.40;99.90;;;;;;4972907;28;20152;-78
2023/05/03 02:40:47;;;;;;;10.10;4.47;;;8.50;99.90;;;;;;4995272;28;20022;-79
2023/05/03 02:43:13;;;;;;;8.75;4.90;;;8.40;99.90;;;;;;4995158;28;20026;-79
2023/05/03 02:45:43;;;;;;;7.95;4.30;;;8.50;99.90;;;;;;4992704;28;20026;-78
2023/05/03 02:48:08;;;;;;;7.40;4.05;;;8.50;99.90;;;;;;4994777;28;20726;-78
2023/05/03 02:50:38;;;;;;;9.52;4.75;;;8.40;99.90;;;;;;4993613;28;20117;-79
2023/05/03 02:53:07;;;;;;;11.48;4.70;;;8.40;99.90;;;;;;4993343;28;20397;-79
2023/05/03 02:55:33;;;;;;;13.32;5.45;;;8.30;99.90;;;;;;4994424;28;20085;-79
2023/05/03 02:58:05;;;;;;;8.65;4.93;;;8.40;99.90;;;;;;4996278;28;21489;-79
2023/05/03 03:00:33;;;;;;;10.10;5.25;;;8.30;99.90;;;;;;4978426;28;20030;-79
2023/05/03 03:02:59;;;;;;;8.82;4.72;;;8.40;99.90;;;;;;4973682;28;20081;-77
2023/05/03 03:05:25;;;;;;;8.32;5.03;;;8.30;99.90;;;;;;4994548;28;20040;-78
2023/05/03 03:07:50;;;;;;;10.80;5.03;;;8.30;99.90;;;;;;4993534;28;20052;-78
2023/05/03 03:10:16;;;;;;;9.55;5.00;;;8.30;99.90;;;;;;4975455;28;20026;-78
2023/05/03 03:12:42;;;;;;;7.78;4.38;;;8.30;99.90;;;;;;4994874;28;20022;-78
2023/05/03 03:15:08;;;;;;;11.23;4.97;;;8.30;99.90;;;;;;4995104;28;20106;-79
2023/05/03 03:17:40;;;;;;;9.65;5.35;;;8.30;99.90;;;;;;4991459;28;20033;-77
2023/05/03 03:20:10;;;;;;;9.85;5.63;;;8.30;99.90;;;;;;4992038;28;20042;-79
2023/05/03 03:22:37;;;;;;;11.57;4.72;;;8.20;99.90;;;;;;4994415;28;20716;-77
2023/05/03 03:25:06;;;;;;;11.02;4.53;;;8.20;99.90;;;;;;4997039;28;20018;-77
2023/05/03 03:27:37;;;;;;;7.93;4.20;;;8.20;99.90;;;;;;4990714;28;20076;-78
2023/05/03 03:30:10;;;;;;;8.25;4.32;;;8.20;99.90;;;;;;4993181;28;20137;-77
2023/05/03 03:32:42;;;;;;;12.63;4.80;;;8.20;99.90;;;;;;4996998;28;20474;-78
2023/05/03 03:35:09;;;;;;;8.75;4.75;;;8.10;99.90;;;;;;4999764;28;20034;-78
2023/05/03 03:37:38;;;;;;;13.18;4.90;;;8.10;99.90;;;;;;4972391;28;20041;-79
2023/05/03 03:40:06;;;;;;;9.30;4.38;;;8.10;99.90;;;;;;4974082;28;20088;-78
2023/05/03 03:42:32;;;;;;;9.23;4.70;;;8.00;99.90;;;;;;4989988;28;20090;-77
2023/05/03 03:44:57;;;;;;;12.95;4.82;;;8.00;99.90;;;;;;4979221;28;20089;-79
2023/05/03 03:47:26;;;;;;;8.18;4.70;;;8.00;99.90;;;;;;4999918;28;20080;-78
2023/05/03 03:49:52;;;;;;;12.10;5.32;;;8.00;99.90;;;;;;4994221;28;20027;-77
2023/05/03 03:52:17;;;;;;;10.48;4.57;;;8.00;99.90;;;;;;4991578;28;20085;-76
2023/05/03 03:54:43;;;;;;;8.35;4.45;;;8.00;99.90;;;;;;4993869;28;20381;-78
2023/05/03 03:57:09;;;;;;;10.15;4.45;;;7.90;99.90;;;;;;4996006;28;20038;-77
2023/05/03 03:59:34;;;;;;;10.13;4.95;;;7.90;99.90;;;;;;4991740;28;20038;-76
2023/05/03 04:02:03;;;;;;;8.00;4.43;;;7.90;99.90;;;;;;4975090;28;20022;-77
2023/05/03 04:04:32;;;;;;;10.43;4.75;;;7.90;99.90;;;;;;4995538;28;20086;-78
2023/05/03 04:06:57;;;;;;;8.80;5.07;;;7.80;99.90;;;;;;4994531;28;20030;-79
2023/05/03 04:09:23;;;;;;;9.20;5.05;;;7.90;99.90;;;;;;4993607;28;20095;-77
2023/05/03 04:11:48;;;;;;;10.82;5.25;;;7.90;99.90;;;;;;4980930;28;20026;-79
2023/05/03 04:14:14;;;;;;;12.88;5.43;;;7.80;99.90;;;;;;4994514;28;20030;-78
2023/05/03 04:16:43;;;;;;;10.48;5.22;;;7.80;99.90;;;;;;4979475;28;20038;-78
2023/05/03 04:19:12;;;;;;;7.60;4.40;;;7.90;99.90;;;;;;4997953;28;20027;-77
2023/05/03 04:21:37;;;;;;;7.95;5.10;;;7.90;99.90;;;;;;4994595;28;20049;-77
2023/05/03 04:24:05;;;;;;;11.70;4.63;;;7.90;99.90;;;;;;4979084;28;20030;-78
2023/05/03 04:26:32;;;;;;;9.68;5.38;;;7.90;99.90;;;;;;4991246;28;20092;-78
2023/05/03 04:29:02;;;;;;;9.48;4.60;;;7.90;99.90;;;;;;4995441;28;20493;-78
2023/05/03 04:31:28;;;;;;;12.55;5.60;;;7.90;99.90;;;;;;4993876;28;20026;-77
2023/05/03 04:33:57;;;;;;;8.63;5.10;;;7.90;99.90;;;;;;4981080;28;20034;-78
2023/05/03 04:36:28;;;;;;;10.40;5.43;;;8.00;99.90;;;;;;4987957;28;20030;-75
2023/05/03 04:38:55;;;;;;;11.52;5.15;;;8.00;99.90;;;;;;4968656;28;20539;-76
2023/05/03 04:41:23;;;;;;;11.25;5.50;;;8.00;99.90;;;;;;4985911;28;20120;-76
2023/05/03 04:43:49;;;;;;;9.90;5.63;;;8.00;99.90;;;;;;4984816;28;20089;-75
2023/05/03 04:46:16;;;;;;;13.05;5.93;;;8.00;99.90;;;;;;4971116;28;20034;-75
2023/05/03 04:48:53;;;;;;;9.57;5.07;;;8.00;99.90;;;;;;4988653;28;20023;-76
2023/05/03 04:51:19;;;;;;;11.13;5.43;;;8.00;99.90;;;;;;4989526;28;20030;-77
2023/05/03 04:53:45;;;;;;;12.88;4.90;;;8.10;99.90;;;;;;4987520;28;20023;-78
2023/05/03 04:56:11;;;;;;;7.75;4.68;;;8.10;99.90;;;;;;4992730;28;20084;-78
2023/05/03 04:58:43;;;;;;;9.73;5.57;;;8.10;99.90;;;;;;4984390;28;20023;-73
2023/05/03 05:01:08;;;;;;;10.70;5.38;;;8.20;99.90;;;;;;4961079;28;20498;-74
2023/05/03 05:03:34;;;;;;;13.00;5.53;;;8.20;99.90;;;;;;4979104;28;20033;-72
2023/05/03 05:06:00;;;;;;;9.90;5.45;;;8.20;99.90;;;;;;4972381;28;20026;-76
2023/05/03 05:08:25;;;;;;;12.65;5.50;;;8.30;99.90;;;;;;4981599;28;20688;-73
2023/05/03 05:10:51;;;;;;;12.13;6.18;;;8.30;99.90;;;;;;4981754;28;20049;-74
2023/05/03 05:13:17;;;;;;;10.88;5.95;;;8.30;99.90;;;;;;4982351;28;20037;-73
2023/05/03 05:15:45;;;;;;;11.60;5.80;;;8.40;99.90;;;;;;4983572;28;20057;-74
2023/05/03 05:18:11;;;;;;;11.50;5.85;;;8.40;99.90;;;;;;4973941;28;20489;-78
2023/05/03 05:20:40;;;;;;;12.05;5.65;;;8.50;99.90;;;;;;4978179;28;20149;-77
2023/05/03 05:23:05;;;;;;;11.90;5.80;;;8.50;99.90;;;;;;4997361;28;20425;-78
2023/05/03 05:25:31;;;;;;;10.80;5.50;;;8.60;99.90;;;;;;4997263;28;20053;-78
2023/05/03 05:27:56;;;;;;;14.40;6.15;;;8.70;99.90;;;;;;5000040;28;20034;-78
2023/05/03 05:30:25;;;;;;;11.13;6.22;;;8.70;99.90;;;;;;4996922;28;20401;-78
2023/05/03 05:32:53;;;;;;;10.18;6.07;;;8.80;99.90;;;;;;4997466;28;20081;-76
2023/05/03 05:35:28;;;;;;;13.38;6.70;;;8.80;99.90;;;;;;4983085;28;20049;-78
2023/05/03 05:37:54;;;;;;;12.07;6.53;;;8.90;99.90;;;;;;4983233;28;20035;-79
2023/05/03 05:40:20;;;;;;;9.55;5.95;;;8.90;99.90;;;;;;4990765;28;20039;-78
2023/05/03 05:42:49;;;;;;;14.32;7.07;;;9.00;99.90;;;;;;4996829;28;20042;-78
2023/05/03 05:45:14;;;;;;;18.70;7.03;;;9.00;99.90;;;;;;4982559;28;20050;-79
2023/05/03 05:47:40;;;;;;;12.30;6.55;;;9.00;99.90;;;;;;4977068;28;20068;-76
2023/05/03 05:50:06;;;;;;;16.55;7.25;;;9.00;99.90;;;;;;4985060;28;20567;-77
2023/05/03 05:52:32;;;;;;;10.50;6.35;;;9.00;99.90;;;;;;4976927;28;20061;-77
2023/05/03 05:54:59;;;;;;;11.15;6.75;;;9.00;99.90;;;;;;4992666;28;20472;-75
2023/05/03 05:57:27;;;;;;;13.40;7.90;;;9.10;99.90;;;;;;4978572;28;20031;-77
2023/05/03 05:59:56;;;;;;;15.95;7.45;;;9.10;99.90;;;;;;4996227;28;20049;-78
2023/05/03 06:02:23;;;;;;;12.50;7.10;;;9.10;99.90;;;;;;4991523;28;20132;-77
2023/05/03 06:04:52;;;;;;;16.17;8.15;;;9.10;99.90;;;;;;4995777;28;20076;-77
2023/05/03 06:07:17;;;;;;;13.55;8.57;;;9.10;99.90;;;;;;4994797;28;20075;-78
2023/05/03 06:09:46;;;;;;;17.25;8.93;;;9.10;99.90;;;;;;4996715;28;20312;-77
2023/05/03 06:12:11;;;;;;;12.90;8.60;;;9.20;99.90;;;;;;4990822;28;20030;-78
2023/05/03 06:14:37;;;;;;;14.10;7.60;;;9.20;99.90;;;;;;4972004;28;20722;-78
2023/05/03 06:17:03;;;;;;;15.27;8.18;;;9.20;99.90;;;;;;4990470;28;20555;-76
2023/05/03 06:19:28;;;;;;;15.05;8.60;;;9.20;99.90;;;;;;4996167;28;20010;-77
2023/05/03 06:21:54;;;;;;;14.48;8.50;;;9.20;99.90;;;;;;4997280;28;20436;-79
2023/05/03 06:24:23;;;;;;;16.05;9.20;;;9.30;99.90;;;;;;4995828;28;20014;-78
2023/05/03 06:26:52;;;;;;;14.63;9.15;;;9.30;99.90;;;;;;4995255;28;20019;-77
2023/05/03 06:29:24;;;;;;;20.15;9.93;;;9.40;99.90;;;;;;4996191;28;20030;-77
2023/05/03 06:31:50;;;;;;;14.27;9.18;;;9.40;99.90;;;;;;4993466;28;20094;-78
2023/05/03 06:34:20;;;;;;;15.80;9.27;;;9.50;99.90;;;;;;4979959;28;20045;-76
2023/05/03 06:37:01;;;;;;;14.82;8.80;;;9.60;99.90;;;;;;4977882;28;20035;-77
2023/05/03 06:39:30;;;;;;;13.85;8.60;;;9.60;99.90;;;;;;4991979;28;20034;-79
2023/05/03 06:41:58;;;;;;;17.73;9.93;;;9.70;99.90;;;;;;4975285;28;20027;-78
2023/05/03 06:44:24;;;;;;;17.80;9.32;;;9.80;99.90;;;;;;4993839;28;20026;-77
2023/05/03 06:46:50;;;;;;;17.85;9.18;;;9.80;99.90;;;;;;4987019;28;20030;-78
2023/05/03 06:49:15;;;;;;;18.08;8.90;;;9.90;99.90;;;;;;4975870;28;20025;-77
2023/05/03 06:51:44;;;;;;;15.63;9.07;;;10.00;99.90;;;;;;4996552;28;20202;-79
2023/05/03 06:54:10;;;;;;;15.57;8.93;;;10.10;99.90;;;;;;4992990;28;20023;-80
2023/05/03 06:56:36;;;;;;;18.63;9.88;;;10.20;99.90;;;;;;4993362;28;20074;-77
2023/05/03 06:59:02;;;;;;;17.63;9.93;;;10.10;99.90;;;;;;4982038;28;24102;-77
2023/05/03 07:01:34;;;;;;;18.60;9.73;;;10.10;99.90;;;;;;4989724;28;20034;-79
2023/05/03 07:04:05;;;;;;;15.88;9.48;;;10.10;99.90;;;;;;4992819;28;20034;-77
2023/05/03 07:06:31;;;;;;;15.85;9.95;;;10.10;99.90;;;;;;4993500;28;20027;-76
2023/05/03 07:09:03;;;;;;;18.80;9.55;;;10.10;99.90;;;;;;4993058;28;20030;-78
2023/05/03 07:11:29;;;;;;;21.63;9.73;;;10.10;99.90;;;;;;4994391;28;20031;-77
2023/05/03 07:14:01;;;;;;;18.45;10.90;;;10.10;99.90;;;;;;4994415;28;20034;-80
2023/05/03 07:16:30;;;;;;;17.98;11.07;;;10.10;99.90;;;;;;4987968;23;20041;-75
2023/05/03 07:18:58;;;;;;;15.18;8.95;;;10.10;99.90;;;;;;4980736;28;20030;-73
2023/05/03 07:21:28;;;;;;;17.15;11.02;;;10.20;99.90;;;;;;4970313;28;20023;-75
2023/05/03 07:24:00;;;;;;;16.83;10.05;;;10.30;99.90;;;;;;4989004;28;20061;-74
2023/05/03 07:26:26;;;;;;;18.25;11.00;;;10.40;99.90;;;;;;4971131;28;20034;-74
2023/05/03 07:29:00;;;;;;;16.73;10.50;;;10.50;99.90;;;;;;4985990;28;20048;-75
2023/05/03 07:31:26;;;;;;;18.55;10.80;;;10.50;99.90;;;;;;4986972;28;20637;-74
2023/05/03 07:33:57;;;;;;;15.18;9.90;;;10.70;99.90;;;;;;4986057;28;20027;-74
2023/05/03 07:36:26;;;;;;;17.73;10.20;;;10.80;99.90;;;;;;4986787;28;20035;-74
2023/05/03 07:38:52;;;;;;;18.20;9.70;;;10.80;99.90;;;;;;4983013;28;20431;-74
2023/05/03 07:41:24;;;;;;;15.18;9.55;;;10.80;99.90;;;;;;4989750;28;20030;-76
2023/05/03 07:43:49;;;;;;;15.00;9.90;;;10.90;99.90;;;;;;4986191;28;20053;-75
2023/05/03 07:46:15;;;;;;;14.88;9.75;;;11.00;99.90;;;;;;4987970;28;20112;-75
2023/05/03 07:48:40;;;;;;;16.90;10.20;;;11.10;99.90;;;;;;4974644;28;20026;-75
2023/05/03 07:51:09;;;;;;;16.83;9.93;;;11.10;99.90;;;;;;4976589;28;20113;-75
2023/05/03 07:53:35;;;;;;;17.08;10.00;;;11.10;99.90;;;;;;4980736;28;20388;-74
2023/05/03 07:56:03;;;;;;;17.63;10.00;;;11.10;99.90;;;;;;4988752;28;20148;-74
2023/05/03 07:58:30;;;;;;;16.42;10.30;;;11.20;99.90;;;;;;4984184;28;20034;-74
2023/05/03 08:00:55;;;;;;;16.05;9.77;;;11.20;99.90;;;;;;4991131;28;20026;-75
2023/05/03 08:03:24;;;;;;;19.20;10.80;;;11.20;99.90;;;;;;4980715;28;20080;-77
2023/05/03 08:05:52;;;;;;;15.70;9.75;;;11.30;99.90;;;;;;4973075;28;20113;-76
2023/05/03 08:08:22;;;;;;;19.83;10.35;;;11.30;99.90;;;;;;4987593;28;20026;-75
2023/05/03 08:10:51;;;;;;;15.18;10.55;;;11.30;99.90;;;;;;4987542;28;20113;-74
2023/05/03 08:13:16;;;;;;;18.15;10.85;;;11.40;99.90;;;;;;4983661;28;20057;-75
2023/05/03 08:15:51;;;;;;;14.52;10.65;;;11.40;99.90;;;;;;4984712;28;20057;-75
2023/05/03 08:18:17;;;;;;;20.38;10.82;;;11.50;99.90;;;;;;4963940;28;20042;-76
2023/05/03 08:20:48;;;;;;;17.83;10.48;;;11.60;99.90;;;;;;4968963;28;20081;-75
2023/05/03 08:23:15;;;;;;;17.48;11.38;;;11.70;99.90;;;;;;4988241;28;20034;-76
2023/05/03 08:25:47;;;;;;;15.77;10.60;;;11.60;99.90;;;;;;4972030;28;20034;-74
2023/05/03 08:28:13;;;;;;;16.70;11.02;;;11.70;99.90;;;;;;4982179;28;20038;-75
2023/05/03 08:30:40;;;;;;;21.55;11.02;;;11.60;99.90;;;;;;4984924;28;20146;-75
2023/05/03 08:33:12;;;;;;;16.20;11.35;;;11.70;99.90;;;;;;4988532;28;20508;-75
2023/05/03 08:35:41;;;;;;;18.20;11.07;;;11.70;99.90;;;;;;4967750;28;20453;-75
2023/05/03 08:38:06;;;;;;;17.92;11.70;;;11.70;99.90;;;;;;4983702;28;20477;-76
2023/05/03 08:40:36;;;;;;;16.88;10.82;;;11.70;99.90;;;;;;4988855;28;20037;-75
2023/05/03 08:43:14;;;;;;;19.23;10.95;;;11.80;99.90;;;;;;4990660;28;20030;-74
2023/05/03 08:45:49;;;;;;;17.23;11.23;;;11.90;99.90;;;;;;4985360;28;20026;-75
2023/05/03 08:48:15;;;;;;;17.52;11.32;;;11.90;99.90;;;;;;4968960;28;20471;-74
2023/05/03 08:50:41;;;;;;;17.15;11.07;;;11.90;99.90;;;;;;4985979;28;20030;-75
2023/05/03 08:53:10;;;;;;;17.27;10.77;;;12.00;99.90;;;;;;4987502;28;20025;-75
2023/05/03 08:55:39;;;;;;;19.25;11.82;;;12.10;99.90;;;;;;4984320;28;20073;-74
2023/05/03 08:58:21;;;;;;;16.90;11.75;;;12.20;99.90;;;;;;4962453;28;20713;-75
2023/05/03 09:00:46;;;;;;;16.60;11.43;;;12.30;99.90;;;;;;4973531;28;20435;-75
2023/05/03 09:03:12;;;;;;;19.17;11.52;;;12.40;99.90;;;;;;4993456;28;20057;-75
2023/05/03 09:05:39;;;;;;;15.55;10.73;;;12.40;99.90;;;;;;4985748;28;20440;-75
2023/05/03 09:08:11;;;;;;;16.10;11.75;;;12.50;99.90;;;;;;4988506;28;20049;-75
2023/05/03 09:10:45;;;;;;;17.65;11.50;;;12.60;99.90;;;;;;4965663;28;20109;-75
2023/05/03 09:13:11;;;;;;;20.70;11.73;;;12.60;99.90;;;;;;4987999;28;20109;-75
2023/05/03 09:15:45;;;;;;;17.88;11.02;;;12.70;99.90;;;;;;4971466;28;20149;-75
2023/05/03 09:18:38;;;;;;;23.70;11.80;;;12.70;99.90;;;;;;4991228;28;20022;-75
2023/05/03 09:21:17;;;;;;;17.73;12.30;;;12.80;99.90;;;;;;4984485;28;20047;-75
2023/05/03 09:23:43;;;;;;;17.13;12.07;;;12.90;99.90;;;;;;4969951;28;20041;-74
2023/05/03 09:26:08;;;;;;;19.83;11.52;;;12.90;99.90;;;;;;4978914;28;20030;-76
2023/05/03 09:28:43;;;;;;;16.95;11.80;;;13.00;99.90;;;;;;4978373;28;20037;-74
2023/05/03 09:31:09;;;;;;;16.55;11.13;;;13.10;99.90;;;;;;4977861;28;20038;-75
2023/05/03 09:33:35;;;;;;;15.50;11.07;;;13.20;99.90;;;;;;4978146;28;20087;-74
2023/05/03 09:36:03;;;;;;;18.90;11.60;;;13.20;99.90;;;;;;4986561;28;20027;-75
2023/05/03 09:38:35;;;;;;;16.33;10.93;;;13.40;99.90;;;;;;4968925;28;20042;-74
2023/05/03 09:41:02;;;;;;;18.70;12.38;;;13.50;99.90;;;;;;4980204;28;20030;-75
2023/05/03 09:43:28;;;;;;;16.33;10.90;;;13.60;99.90;;;;;;4990103;28;20388;-76
2023/05/03 09:46:07;;;;;;;19.13;10.02;;;13.70;99.90;;;;;;4987902;28;20114;-75
2023/05/03 09:48:33;;;;;;;13.75;9.00;;;13.90;99.90;;;;;;4993398;28;20397;-76
2023/05/03 09:50:59;;;;;;;18.70;10.10;;;13.90;99.90;;;;;;4997410;28;20046;-75
2023/05/03 09:53:26;;;;;;;18.65;9.90;;;14.10;99.90;;;;;;4974268;28;20026;-75
2023/05/03 09:55:54;;;;;;;18.08;11.55;;;14.10;99.90;;;;;;4969954;28;20085;-76
2023/05/03 09:58:22;;;;;;;14.25;9.40;;;14.10;99.90;;;;;;4987335;28;20022;-76
2023/05/03 10:00:50;;;;;;;20.77;9.40;;;14.20;99.90;;;;;;4990875;28;20494;-76
2023/05/03 10:03:35;;;;;;;13.85;9.25;;;14.20;99.90;;;;;;4989336;28;20118;-76
2023/05/03 10:06:05;;;;;;;13.57;9.18;;;14.20;99.90;;;;;;4984896;28;20053;-76
2023/05/03 10:08:39;;;;;;;13.73;9.45;;;14.30;99.90;;;;;;4984468;28;20532;-76
2023/05/03 10:11:08;;;;;;;15.73;9.90;;;14.40;99.90;;;;;;4988138;28;20028;-76
2023/05/03 10:13:35;;;;;;;13.38;9.52;;;14.40;99.90;;;;;;4989073;28;20487;-76
2023/05/03 10:16:08;;;;;;;12.43;9.55;;;14.50;99.90;;;;;;4982842;28;20022;-75
2023/05/03 10:18:39;;;;;;;16.87;9.70;;;14.50;99.90;;;;;;4985204;28;20524;-75
2023/05/03 10:21:17;;;;;;;19.63;11.55;;;14.60;99.90;;;;;;4985940;28;20381;-76
2023/05/03 10:24:09;;;;;;;14.48;10.57;;;14.80;99.90;;;;;;4989065;28;20022;-76
2023/05/03 10:26:35;;;;;;;14.73;9.57;;;14.80;99.90;;;;;;4966569;28;20027;-76
2023/05/03 10:29:01;;;;;;;15.15;10.05;;;14.80;99.90;;;;;;4972638;28;20039;-77
2023/05/03 10:31:46;;;;;;;13.32;9.32;;;15.00;99.90;;;;;;4990436;28;20154;-76
2023/05/03 10:34:33;;;;;;;13.77;9.32;;;15.00;99.90;;;;;;4974153;28;20029;-76
2023/05/03 10:37:10;;;;;;;15.40;9.80;;;15.10;99.90;;;;;;4984743;28;20031;-76
2023/05/03 10:39:36;;;;;;;14.32;9.90;;;15.10;99.90;;;;;;4981499;28;20106;-77
2023/05/03 10:42:07;;;;;;;14.43;10.10;;;15.20;99.90;;;;;;4990641;28;20045;-77
2023/05/03 10:44:50;;;;;;;14.40;9.52;;;15.20;99.90;;;;;;4988896;28;20488;-77
2023/05/03 10:47:17;;;;;;;12.55;8.45;;;15.20;99.90;;;;;;4983426;28;20113;-76
2023/05/03 10:49:43;;;;;;;11.82;8.35;;;15.30;99.90;;;;;;4987625;28;20061;-76
2023/05/03 10:52:34;;;;;;;20.27;10.82;;;15.30;99.90;;;;;;4991237;28;21284;-76
2023/05/03 10:55:00;;;;;;;12.40;9.95;;;15.40;99.90;;;;;;4986037;28;20069;-77
2023/05/03 10:57:31;;;;;;;12.00;9.35;;;15.50;99.90;;;;;;4985891;28;20035;-80
2023/05/03 10:59:57;;;;;;;14.18;9.15;;;15.40;99.90;;;;;;4991716;28;20036;-76
2023/05/03 11:02:32;;;;;;;10.63;7.40;;;15.40;99.90;;;;;;4983501;28;20035;-76
2023/05/03 11:05:04;;;;;;;10.38;7.68;;;15.40;99.90;;;;;;4990874;28;20180;-77
2023/05/03 11:07:30;;;;;;;10.35;7.30;;;15.50;99.90;;;;;;4991060;28;20154;-78
2023/05/03 11:09:56;;;;;;;10.52;7.10;;;15.60;99.90;;;;;;4974690;28;20381;-74
2023/05/03 11:12:22;;;;;;;9.00;6.32;;;15.70;99.90;;;;;;4988201;28;20081;-74
2023/05/03 11:14:50;;;;;;;13.98;7.88;;;15.70;99.90;;;;;;4987415;28;20050;-76
2023/05/03 11:17:16;;;;;;;11.07;7.88;;;15.90;99.90;;;;;;4987454;28;20030;-75
2023/05/03 11:19:45;;;;;;;12.63;7.50;;;16.00;99.90;;;;;;4985206;28;20076;-75
2023/05/03 11:22:11;;;;;;;11.40;7.72;;;16.10;99.90;;;;;;4989865;28;20054;-75
2023/05/03 11:24:37;;;;;;;11.98;7.72;;;16.20;99.90;;;;;;4989730;28;20053;-75
2023/05/03 11:27:12;;;;;;;11.50;6.97;;;16.20;99.90;;;;;;4975447;28;20030;-76
2023/05/03 11:29:38;;;;;;;12.02;7.50;;;16.30;99.90;;;;;;4983962;28;20026;-76
2023/05/03 11:32:07;;;;;;;12.13;7.88;;;16.40;99.90;;;;;;4988309;28;20053;-77
2023/05/03 11:34:36;;;;;;;12.88;7.55;;;16.40;99.90;;;;;;4989661;28;20037;-76
2023/05/03 11:37:08;;;;;;;15.13;8.00;;;16.40;99.90;;;;;;4988983;28;20414;-76
2023/05/03 11:39:35;;;;;;;10.45;7.70;;;16.40;99.90;;;;;;4989372;28;20045;-76
2023/05/03 11:42:04;;;;;;;9.85;6.68;;;16.40;99.90;;;;;;4988833;28;20033;-75
2023/05/03 11:44:30;;;;;;;9.93;6.40;;;16.40;99.90;;;;;;4986192;28;20042;-76
2023/05/03 11:46:56;;;;;;;18.92;7.40;;;16.50;99.90;;;;;;4987977;28;20034;-76
2023/05/03 11:49:23;;;;;;;11.18;7.22;;;16.50;99.90;;;;;;4989055;28;20171;-76
2023/05/03 11:51:55;;;;;;;8.32;6.30;;;16.50;99.90;;;;;;4992314;28;20388;-77
2023/05/03 11:54:22;;;;;;;10.20;6.55;;;16.60;99.90;;;;;;4989809;28;20049;-77
2023/05/03 11:56:48;;;;;;;7.28;5.20;;;16.70;99.90;;;;;;4990585;28;20030;-77
2023/05/03 11:59:14;;;;;;;8.02;5.57;;;16.80;99.90;;;;;;4990071;28;20026;-77
2023/05/03 12:01:48;;;;;;;6.88;4.95;;;16.90;99.90;;;;;;4972787;28;20030;-76
2023/05/03 12:04:13;;;;;;;6.80;4.63;;;16.90;99.90;;;;;;4987813;28;20041;-77
2023/05/03 12:06:39;;;;;;;7.38;5.75;;;16.90;99.90;;;;;;4990297;28;20030;-77
2023/05/03 12:09:13;;;;;;;7.45;5.68;;;16.90;99.90;;;;;;4990326;28;20049;-77
2023/05/03 12:11:40;;;;;;;6.68;4.80;;;16.90;99.90;;;;;;4972946;28;20041;-76
2023/05/03 12:14:06;;;;;;;7.03;4.50;;;17.00;99.90;;;;;;4989491;28;20023;-76
2023/05/03 12:16:46;;;;;;;7.13;5.32;;;17.00;99.30;;;;;;4987222;28;20030;-76
2023/05/03 12:19:21;;;;;;;9.50;5.55;;;17.00;99.90;;;;;;4986433;28;20477;-76
2023/05/03 12:21:47;;;;;;;6.05;4.93;;;17.00;99.90;;;;;;4985977;28;20026;-76
2023/05/03 12:24:26;;;;;;;9.05;4.93;;;17.10;99.90;;;;;;4985249;28;20042;-76
2023/05/03 12:26:52;;;;;;;6.25;4.32;;;17.20;99.90;;;;;;4986775;28;20061;-77
2023/05/03 12:29:18;;;;;;;8.05;4.55;;;17.30;99.20;;;;;;4989031;28;20569;-76
2023/05/03 12:31:44;;;;;;;5.93;3.97;;;17.30;98.60;;;;;;4987883;28;20027;-78
2023/05/03 12:34:10;;;;;;;5.88;3.53;;;17.40;97.70;;;;;;4992272;28;20483;-77
2023/05/03 12:36:36;;;;;;;6.10;4.18;;;17.40;97.10;;;;;;4993271;28;20028;-76
2023/05/03 12:39:02;;;;;;;6.28;4.07;;;17.50;96.40;;;;;;4988012;28;20084;-77
2023/05/03 12:41:30;;;;;;;5.35;3.70;;;17.50;96.60;;;;;;4990416;28;20023;-76
2023/05/03 12:44:08;;;;;;;4.65;3.50;;;17.60;96.10;;;;;;4992622;28;20064;-76
2023/05/03 12:46:34;;;;;;;5.32;3.50;;;17.60;95.70;;;;;;4992507;28;20529;-76
2023/05/03 12:49:09;;;;;;;7.88;3.80;;;17.50;95.60;;;;;;4990778;28;20022;-76
2023/05/03 12:51:35;;;;;;;5.75;3.20;;;17.50;95.10;;;;;;4990961;28;20038;-76
2023/05/03 12:54:00;;;;;;;4.95;3.60;;;17.50;94.90;;;;;;4990361;28;20059;-76
2023/05/03 12:56:26;;;;;;;4.45;3.20;;;17.60;94.50;;;;;;4988674;28;20130;-76